Flight Track Log - Related Links

Times and Time Zones

All times are in EST time to prevent confusion due to time zone crossing. See the N173DS flight status page for this flight to view local times or setup timezone preferences in your user account.

Time Position Orientation Groundspeed Altitude Reporting Facility
EST Latitude Longitude Course Direction KTS MPH feet Rate Location/Type
Sun 05:58:23 PM 26.8025 -80.0103 350° North 269 310 7,500  Level Miami Center
Sun 05:59:23 PM 26.8275 -80.1017 287° West 229 264 10,400 2,200 Climbing Miami Center
Sun 06:00:23 PM 26.8442 -80.2022 281° West 299 344 11,900 800 Climbing Miami Center
Sun 06:01:00 PM 26.9854 -80.6536 236° Southwest  Level Estimated
Sun 06:01:23 PM 26.8603 -80.3169 279° West 348 400 12,000  Level Miami Center
Sun 06:02:23 PM 26.8933 -80.4181 290° West 377 434 14,500 2,800 Climbing Miami Center
Sun 06:03:23 PM 26.9300 -80.5425 288° West 384 442 17,600 2,700 Climbing Miami Center
Sun 06:04:23 PM 26.9686 -80.6556 291° West 404 465 19,900 1,200 Climbing Miami Center
Sun 06:05:23 PM 27.0114 -80.7781 291° West 415 478 20,000 50 Climbing Miami Center
Sun 06:06:23 PM 27.0519 -80.9008 290° West 420 483 20,000  Level Miami Center
Sun 06:07:23 PM 27.0925 -81.0189 291° West 420 483 20,000  Level Miami Center
Sun 06:08:23 PM 27.1364 -81.1558 290° West 420 483 20,000 -150 Level Miami Center
Sun 06:09:23 PM 27.1767 -81.2786 290° West 420 483 19,700 -600 Descending Miami Center
Sun 06:10:23 PM 27.2147 -81.3967 290° West 415 478 18,800 -1,100 Descending Miami Center
Sun 06:11:23 PM 27.2525 -81.5175 289° West 409 471 17,500 -1,300 Descending Miami Center
Sun 06:12:23 PM 27.2906 -81.6311 291° West 404 465 16,200 -1,250 Descending Miami Center
Sun 06:13:23 PM 27.3286 -81.7447 291° West 398 458 15,000 -1,200 Descending Miami Center
Sun 06:14:23 PM 27.3567 -81.8347 289° West 391 450 13,800 -1,250 Descending Miami Center
Sun 06:15:23 PM 27.3944 -81.9533 290° West 381 438 12,500 -1,100 Descending Miami Center
Sun 06:16:23 PM 27.4281 -82.0600 290° West 369 425 11,600 -800 Descending Miami Center
Sun 06:17:23 PM 27.4706 -82.1603 296° West 364 419 10,900 -350 Descending Miami Center
Sun 06:18:23 PM 27.5486 -82.2481 315° West 359 413 10,900  Level Miami Center
Sun 06:19:23 PM 27.6083 -82.3236 312° West 366 421 10,900 -1,068 Level Miami Center
Sun 06:20:21 PM 27.6500 -82.4167 297° West 304 350 8,800 -2,411 Descending Tampa TRACON
Sun 06:21:15 PM 27.6833 -82.4833 299° West 249 287 6,400 -2,333 Descending Tampa TRACON
Sun 06:22:27 PM 27.7500 -82.5333 326° Northwest 226 260 3,900 -1,571 Descending Tampa TRACON
Sun 06:23:21 PM 27.8000 -82.5333 360° North 194 223 3,100 -632 Descending Tampa TRACON
Sun 06:24:21 PM 27.8500 -82.5333 360° North 179 206 2,700 -650 Descending Tampa TRACON
Sun 06:25:21 PM 27.8833 -82.5333 360° North 147 169 1,800 -900 Descending Tampa TRACON
Sun 06:26:21 PM 27.9333 -82.5333 360° North 134 154 900 -900 Descending Tampa TRACON
Sun 06:28:00 PM 27.9755 -82.5332 North  Level Estimated
Sun 06:35:00 PM 27.9755 -82.5332 190° South  Level Estimated
Sun 06:36:00 PM 27.9755 -82.5332 190° South  Level Estimated

Login

Don't have an account? Register now (free) for customized features, flight alerts, and more!